Time;durP1;ratioP1;P1;durP2;ratioP2;P2;SDS_P1;SDS_P2;PMS_P1;PMS_P2;Temp;Humidity;BMP_temperature;BMP_pressure;BME280_temperature;BME280_humidity;BME280_pressure;Samples;Min_cycle;Max_cycle;Signal;HPM_P1;HPM_P2
2024/02/12 00:00:11;;;;;;;1.00;0.35;;;;;;;;;;5056248;28;20025;-54
2024/02/12 00:02:39;;;;;;;2.92;0.40;;;;;;;;;;5056387;28;20428;-50
2024/02/12 00:05:07;;;;;;;1.27;0.57;;;;;;;;;;5056197;28;20340;-53
2024/02/12 00:07:33;;;;;;;0.57;0.30;;;;;;;;;;5055626;28;20025;-53
2024/02/12 00:10:05;;;;;;;1.05;0.28;;;;;;;;;;5056273;28;20332;-55
2024/02/12 00:12:31;;;;;;;2.20;0.60;;;;;;;;;;5055575;28;20032;-51
2024/02/12 00:14:59;;;;;;;1.35;0.60;;;;;;;;;;5056059;28;20032;-52
2024/02/12 00:17:25;;;;;;;0.45;0.30;;;;;;;;;;5055405;28;20091;-52
2024/02/12 00:19:51;;;;;;;2.88;0.70;;;;;;;;;;5056110;28;20029;-54
2024/02/12 00:22:20;;;;;;;1.17;0.30;;;;;;;;;;5055688;28;20120;-52
2024/02/12 00:24:46;;;;;;;1.92;0.80;;;;;;;;;;5055597;28;20117;-53
2024/02/12 00:27:12;;;;;;;0.95;0.38;;;;;;;;;;5055316;28;20048;-57
2024/02/12 00:29:38;;;;;;;1.23;0.45;;;;;;;;;;5055769;28;20025;-57
2024/02/12 00:32:04;;;;;;;1.25;0.50;;;;;;;;;;5055327;28;20428;-52
2024/02/12 00:34:33;;;;;;;0.77;0.40;;;;;;;;;;5055115;28;20056;-57
2024/02/12 00:36:59;;;;;;;0.82;0.32;;;;;;;;;;5055461;28;20029;-57
2024/02/12 00:39:25;;;;;;;2.17;1.08;;;;;;;;;;5056088;28;20465;-55
2024/02/12 00:41:54;;;;;;;1.42;0.77;;;;;;;;;;5054783;28;20128;-53
2024/02/12 00:44:20;;;;;;;1.92;0.77;;;;;;;;;;5055461;28;20028;-54
2024/02/12 00:46:47;;;;;;;2.28;0.35;;;;;;;;;;5055177;28;20052;-55
2024/02/12 00:49:15;;;;;;;3.50;0.55;;;;;;;;;;5055479;28;20108;-50
2024/02/12 00:51:42;;;;;;;1.08;0.43;;;;;;;;;;5054890;28;20132;-55
2024/02/12 00:54:14;;;;;;;0.82;0.40;;;;;;;;;;5054263;28;20020;-56
2024/02/12 00:56:44;;;;;;;0.73;0.40;;;;;;;;;;5054556;28;20045;-50
2024/02/12 00:59:17;;;;;;;0.43;0.20;;;;;;;;;;5055051;28;20028;-54
2024/02/12 01:01:44;;;;;;;1.00;0.43;;;;;;;;;;5054669;28;20029;-54
2024/02/12 01:04:10;;;;;;;1.63;0.40;;;;;;;;;;5054624;28;20036;-54
2024/02/12 01:06:39;;;;;;;0.50;0.25;;;;;;;;;;5054550;28;20467;-54
2024/02/12 01:09:06;;;;;;;1.48;0.47;;;;;;;;;;5054770;28;20380;-54
2024/02/12 01:11:32;;;;;;;1.70;0.52;;;;;;;;;;5054692;28;20371;-54
2024/02/12 01:13:58;;;;;;;1.75;0.65;;;;;;;;;;5054450;28;20417;-52
2024/02/12 01:16:27;;;;;;;0.90;0.38;;;;;;;;;;5054970;28;20115;-55
2024/02/12 01:18:53;;;;;;;0.75;0.45;;;;;;;;;;5055396;28;20368;-55
2024/02/12 01:21:20;;;;;;;4.35;0.50;;;;;;;;;;5054211;28;20048;-55
2024/02/12 01:23:45;;;;;;;2.00;0.68;;;;;;;;;;5054762;28;20025;-49
2024/02/12 01:26:15;;;;;;;0.90;0.45;;;;;;;;;;5054833;28;20371;-51
2024/02/12 01:28:44;;;;;;;1.88;0.50;;;;;;;;;;5054518;28;20117;-56
2024/02/12 01:31:17;;;;;;;2.97;0.88;;;;;;;;;;5053884;28;20032;-56
2024/02/12 01:33:43;;;;;;;1.90;0.60;;;;;;;;;;5054297;28;20481;-52
2024/02/12 01:36:09;;;;;;;1.73;0.50;;;;;;;;;;5054039;28;20108;-56
2024/02/12 01:38:36;;;;;;;1.02;0.45;;;;;;;;;;5054826;28;20119;-55
2024/02/12 01:41:02;;;;;;;1.00;0.35;;;;;;;;;;5054232;28;20029;-54
2024/02/12 01:43:31;;;;;;;1.67;0.55;;;;;;;;;;5053861;28;20037;-56
2024/02/12 01:45:59;;;;;;;1.05;0.35;;;;;;;;;;5053575;28;20054;-56
2024/02/12 01:48:25;;;;;;;0.90;0.47;;;;;;;;;;5054535;28;20371;-55
2024/02/12 01:50:52;;;;;;;1.45;0.60;;;;;;;;;;5053922;28;20021;-56
2024/02/12 01:53:18;;;;;;;1.77;1.00;;;;;;;;;;5053869;28;20029;-53
2024/02/12 01:55:45;;;;;;;1.10;0.55;;;;;;;;;;5054049;28;20170;-55
2024/02/12 01:58:12;;;;;;;0.70;0.38;;;;;;;;;;5053793;28;20432;-55
2024/02/12 02:00:42;;;;;;;1.23;0.57;;;;;;;;;;5053751;28;20056;-54
2024/02/12 02:03:08;;;;;;;2.33;1.02;;;;;;;;;;5053612;28;20033;-55
2024/02/12 02:05:34;;;;;;;2.20;0.57;;;;;;;;;;5053492;28;20021;-54
2024/02/12 02:08:00;;;;;;;8.25;0.75;;;;;;;;;;5053695;28;20379;-55
2024/02/12 02:10:26;;;;;;;0.70;0.40;;;;;;;;;;5054170;28;20021;-55
2024/02/12 02:12:53;;;;;;;1.70;0.50;;;;;;;;;;5053581;28;20025;-55
2024/02/12 02:15:19;;;;;;;0.35;0.20;;;;;;;;;;5053478;28;20025;-56
2024/02/12 02:17:45;;;;;;;0.57;0.30;;;;;;;;;;5053851;28;20111;-56
2024/02/12 02:20:12;;;;;;;0.88;0.30;;;;;;;;;;5053828;28;20069;-54
2024/02/12 02:22:39;;;;;;;1.13;0.52;;;;;;;;;;5053485;28;20402;-55
2024/02/12 02:25:05;;;;;;;1.33;0.50;;;;;;;;;;5053526;28;20025;-55
2024/02/12 02:27:31;;;;;;;0.85;0.40;;;;;;;;;;5053504;28;20135;-54
2024/02/12 02:29:57;;;;;;;1.45;0.32;;;;;;;;;;5053836;28;20060;-56
2024/02/12 02:32:23;;;;;;;1.13;0.40;;;;;;;;;;5053502;28;20064;-55
2024/02/12 02:34:49;;;;;;;0.77;0.40;;;;;;;;;;5053787;28;20402;-56
2024/02/12 02:37:15;;;;;;;1.38;0.40;;;;;;;;;;5053419;28;20363;-54
2024/02/12 02:39:41;;;;;;;1.45;0.60;;;;;;;;;;5053969;28;20021;-55
2024/02/12 02:42:08;;;;;;;1.30;0.30;;;;;;;;;;5053315;28;20029;-54
2024/02/12 02:44:35;;;;;;;0.43;0.30;;;;;;;;;;5053332;28;20036;-52
2024/02/12 02:47:02;;;;;;;1.10;0.35;;;;;;;;;;5053597;28;20021;-54
2024/02/12 02:49:28;;;;;;;3.47;0.40;;;;;;;;;;5053903;28;20374;-54
2024/02/12 02:51:57;;;;;;;1.00;0.43;;;;;;;;;;5053283;28;20107;-56
2024/02/12 02:54:23;;;;;;;1.35;0.57;;;;;;;;;;5053771;28;20025;-54
2024/02/12 02:56:48;;;;;;;1.30;0.60;;;;;;;;;;5053270;28;20045;-52
2024/02/12 02:59:14;;;;;;;0.40;0.20;;;;;;;;;;5053288;28;20405;-51
2024/02/12 03:01:41;;;;;;;3.30;0.47;;;;;;;;;;5053653;28;20029;-55
2024/02/12 03:04:07;;;;;;;0.75;0.40;;;;;;;;;;5053960;28;20025;-53
2024/02/12 03:06:33;;;;;;;0.95;0.60;;;;;;;;;;5053176;28;20025;-52
2024/02/12 03:09:00;;;;;;;1.10;0.50;;;;;;;;;;5053963;28;20036;-53
2024/02/12 03:11:27;;;;;;;0.85;0.40;;;;;;;;;;5053123;28;20463;-53
2024/02/12 03:13:55;;;;;;;0.80;0.38;;;;;;;;;;5053123;28;20374;-52
2024/02/12 03:16:24;;;;;;;1.83;0.40;;;;;;;;;;5053004;28;20022;-53
2024/02/12 03:18:51;;;;;;;1.05;0.50;;;;;;;;;;5053532;28;20025;-52
2024/02/12 03:21:21;;;;;;;0.93;0.40;;;;;;;;;;5053007;28;20029;-51
2024/02/12 03:23:47;;;;;;;0.75;0.40;;;;;;;;;;5052973;28;20040;-55
2024/02/12 03:26:13;;;;;;;0.68;0.30;;;;;;;;;;5052970;28;20025;-53
2024/02/12 03:28:39;;;;;;;0.80;0.35;;;;;;;;;;5055340;28;20077;-51
2024/02/12 03:31:05;;;;;;;0.25;0.10;;;;;;;;;;5056984;28;20052;-53
2024/02/12 03:33:32;;;;;;;0.60;0.28;;;;;;;;;;5056800;28;20525;-51
2024/02/12 03:35:58;;;;;;;0.95;0.30;;;;;;;;;;5056409;28;20033;-52
2024/02/12 03:38:24;;;;;;;1.05;0.47;;;;;;;;;;5056701;28;20056;-51
2024/02/12 03:40:50;;;;;;;1.75;0.25;;;;;;;;;;5056343;28;20033;-53
2024/02/12 03:43:17;;;;;;;0.38;0.20;;;;;;;;;;5056472;28;20490;-54
2024/02/12 03:45:45;;;;;;;1.10;0.43;;;;;;;;;;5055976;28;20057;-52
2024/02/12 04:01:55;;;;;;;3.60;0.68;;;;;;;;;;5055953;28;20040;-52
2024/02/12 04:04:21;;;;;;;1.45;0.50;;;;;;;;;;5056694;28;20021;-53
2024/02/12 04:06:47;;;;;;;1.27;0.38;;;;;;;;;;5055803;28;20036;-52
2024/02/12 04:09:13;;;;;;;1.02;0.20;;;;;;;;;;5056296;28;20017;-53
2024/02/12 04:11:40;;;;;;;0.52;0.15;;;;;;;;;;5056004;28;20071;-54
2024/02/12 04:14:06;;;;;;;0.32;0.17;;;;;;;;;;5055691;28;20028;-52
2024/02/12 04:16:32;;;;;;;1.67;0.38;;;;;;;;;;5055632;28;20064;-51
2024/02/12 04:18:58;;;;;;;1.35;0.60;;;;;;;;;;5055515;28;20079;-53
2024/02/12 04:21:24;;;;;;;1.08;0.43;;;;;;;;;;5055992;28;20074;-53
2024/02/12 04:23:52;;;;;;;0.98;0.35;;;;;;;;;;5055552;28;20459;-55
2024/02/12 04:26:18;;;;;;;1.45;0.47;;;;;;;;;;5055725;28;20037;-54
2024/02/12 04:28:45;;;;;;;0.50;0.17;;;;;;;;;;5055994;28;20021;-53
2024/02/12 04:31:11;;;;;;;0.60;0.30;;;;;;;;;;5055370;28;20459;-54
2024/02/12 04:33:41;;;;;;;1.05;0.40;;;;;;;;;;5055254;28;20029;-51
2024/02/12 04:36:14;;;;;;;0.45;0.30;;;;;;;;;;5054951;28;20497;-53
2024/02/12 04:38:40;;;;;;;1.35;0.55;;;;;;;;;;5055481;28;20021;-49
2024/02/12 04:41:06;;;;;;;1.10;0.40;;;;;;;;;;5055947;28;20451;-50
2024/02/12 04:43:35;;;;;;;0.40;0.30;;;;;;;;;;5055545;28;20045;-52
2024/02/12 04:46:01;;;;;;;2.53;0.40;;;;;;;;;;5054993;28;20096;-53
2024/02/12 04:48:27;;;;;;;0.45;0.20;;;;;;;;;;5055557;28;20090;-54
2024/02/12 04:50:53;;;;;;;2.97;0.57;;;;;;;;;;5054941;28;20075;-54
2024/02/12 04:53:19;;;;;;;1.08;0.38;;;;;;;;;;5055243;28;20465;-52
2024/02/12 04:55:45;;;;;;;0.70;0.30;;;;;;;;;;5055437;28;20049;-54
2024/02/12 04:58:11;;;;;;;0.82;0.63;;;;;;;;;;5054566;28;20482;-54
2024/02/12 05:00:38;;;;;;;1.25;0.50;;;;;;;;;;5054791;28;20025;-55
2024/02/12 05:03:07;;;;;;;1.00;0.40;;;;;;;;;;5054985;28;20124;-51
2024/02/12 05:05:34;;;;;;;3.60;1.02;;;;;;;;;;5055070;28;20095;-51
2024/02/12 05:08:03;;;;;;;2.15;0.68;;;;;;;;;;5055067;28;20025;-52
2024/02/12 05:10:29;;;;;;;1.50;0.50;;;;;;;;;;5055212;28;20029;-53
2024/02/12 05:12:56;;;;;;;0.90;0.50;;;;;;;;;;5054629;28;20025;-51
2024/02/12 05:15:24;;;;;;;1.23;0.52;;;;;;;;;;5055075;28;20033;-50
2024/02/12 05:17:54;;;;;;;1.20;0.50;;;;;;;;;;5054569;28;20451;-54
2024/02/12 05:23:08;;;;;;;1.30;0.73;;;;;;;;;;5054784;28;20040;-49
2024/02/12 05:25:34;;;;;;;1.17;0.60;;;;;;;;;;5054642;28;20451;-51
2024/02/12 05:28:00;;;;;;;1.23;0.63;;;;;;;;;;5054377;28;20027;-50
2024/02/12 05:30:26;;;;;;;3.88;0.65;;;;;;;;;;5054697;28;20028;-51
2024/02/12 05:32:52;;;;;;;1.13;0.60;;;;;;;;;;5055086;28;20029;-53
2024/02/12 05:35:18;;;;;;;2.45;0.95;;;;;;;;;;5053973;28;20032;-52
2024/02/12 05:37:44;;;;;;;1.95;0.65;;;;;;;;;;5055087;28;20079;-51
2024/02/12 05:40:11;;;;;;;1.13;0.57;;;;;;;;;;5054167;28;20401;-49
2024/02/12 05:42:37;;;;;;;2.05;0.93;;;;;;;;;;5054295;28;20041;-53
2024/02/12 05:45:04;;;;;;;3.83;1.13;;;;;;;;;;5054135;28;20033;-50
2024/02/12 05:47:30;;;;;;;1.40;0.75;;;;;;;;;;5054851;28;20064;-51
2024/02/12 05:49:56;;;;;;;3.08;1.23;;;;;;;;;;5054044;28;20427;-49
2024/02/12 05:52:23;;;;;;;2.60;0.95;;;;;;;;;;5054225;28;20035;-55
2024/02/12 05:54:49;;;;;;;2.20;0.93;;;;;;;;;;5053944;28;20473;-52
2024/02/12 05:57:15;;;;;;;2.10;1.05;;;;;;;;;;5054929;28;20052;-53
2024/02/12 05:59:41;;;;;;;2.10;1.17;;;;;;;;;;5053567;28;20024;-53
2024/02/12 06:02:06;;;;;;;2.05;0.88;;;;;;;;;;5053795;28;20132;-50
2024/02/12 06:04:32;;;;;;;2.42;1.40;;;;;;;;;;5054337;28;20108;-51
2024/02/12 06:07:03;;;;;;;5.15;1.08;;;;;;;;;;5053624;28;20025;-57
2024/02/12 06:09:31;;;;;;;2.05;1.00;;;;;;;;;;5054657;28;20481;-51
2024/02/12 06:11:57;;;;;;;2.10;1.38;;;;;;;;;;5053964;28;20163;-55
2024/02/12 06:14:23;;;;;;;4.38;1.55;;;;;;;;;;5053753;28;20469;-56
2024/02/12 06:16:49;;;;;;;2.95;1.90;;;;;;;;;;5053660;28;20075;-57
2024/02/12 06:19:15;;;;;;;3.03;1.63;;;;;;;;;;5054062;28;20025;-56
2024/02/12 06:21:45;;;;;;;2.35;1.27;;;;;;;;;;5053554;28;20029;-57
2024/02/12 06:24:11;;;;;;;2.20;1.10;;;;;;;;;;5053630;28;20457;-55
2024/02/12 06:26:38;;;;;;;2.97;1.40;;;;;;;;;;5053582;28;20356;-52
2024/02/12 06:29:04;;;;;;;2.97;1.38;;;;;;;;;;5054001;28;20036;-54
2024/02/12 06:31:31;;;;;;;1.90;1.13;;;;;;;;;;5053326;28;20017;-57
2024/02/12 06:33:58;;;;;;;1.42;0.90;;;;;;;;;;5053588;28;20104;-55
2024/02/12 06:36:24;;;;;;;2.63;1.48;;;;;;;;;;5053378;28;20029;-57
2024/02/12 06:38:50;;;;;;;2.28;1.40;;;;;;;;;;5053689;28;20028;-56
2024/02/12 06:41:16;;;;;;;2.50;1.35;;;;;;;;;;5053440;28;20051;-57
2024/02/12 06:43:42;;;;;;;2.45;1.30;;;;;;;;;;5053651;28;20399;-58
2024/02/12 06:46:08;;;;;;;1.65;0.95;;;;;;;;;;5053313;28;20036;-57
2024/02/12 06:48:33;;;;;;;3.65;1.98;;;;;;;;;;5053222;28;20029;-57
2024/02/12 06:51:08;;;;;;;3.33;1.45;;;;;;;;;;5053264;28;20025;-57
2024/02/12 06:53:35;;;;;;;2.22;1.38;;;;;;;;;;5053948;28;20036;-56
2024/02/12 06:56:02;;;;;;;2.13;1.48;;;;;;;;;;5053047;28;20364;-55
2024/02/12 06:58:29;;;;;;;1.95;1.15;;;;;;;;;;5053054;28;20406;-56
2024/02/12 07:00:57;;;;;;;4.00;1.77;;;;;;;;;;5053625;28;20029;-56
2024/02/12 07:03:23;;;;;;;2.55;1.60;;;;;;;;;;5056855;28;20047;-57
2024/02/12 07:05:49;;;;;;;5.82;1.58;;;;;;;;;;5057596;28;20116;-57
2024/02/12 07:08:18;;;;;;;2.10;1.30;;;;;;;;;;5057372;28;20021;-57
2024/02/12 07:10:44;;;;;;;1.70;1.17;;;;;;;;;;5056825;28;20100;-55
2024/02/12 07:13:10;;;;;;;4.03;1.55;;;;;;;;;;5056752;28;20063;-56
2024/02/12 07:15:36;;;;;;;2.42;1.15;;;;;;;;;;5057512;28;20029;-57
2024/02/12 07:18:02;;;;;;;3.10;1.80;;;;;;;;;;5057079;28;20444;-56
2024/02/12 07:20:28;;;;;;;4.03;1.48;;;;;;;;;;5056707;28;20036;-57
2024/02/12 07:22:55;;;;;;;2.42;1.80;;;;;;;;;;5056693;28;20037;-57
2024/02/12 07:25:20;;;;;;;3.65;1.90;;;;;;;;;;5057517;28;20155;-57
2024/02/12 07:27:47;;;;;;;3.55;1.52;;;;;;;;;;5057192;28;20082;-56
2024/02/12 07:30:14;;;;;;;3.28;1.80;;;;;;;;;;5057353;28;20040;-56
2024/02/12 07:32:40;;;;;;;3.10;1.58;;;;;;;;;;5056536;28;20040;-56
2024/02/12 07:35:09;;;;;;;2.17;1.30;;;;;;;;;;5056790;28;20025;-55
2024/02/12 07:37:38;;;;;;;2.22;1.40;;;;;;;;;;5056699;28;20024;-53
2024/02/12 07:40:07;;;;;;;2.42;1.17;;;;;;;;;;5056386;28;20025;-54
2024/02/12 07:42:35;;;;;;;2.22;1.15;;;;;;;;;;5056405;28;20068;-57
2024/02/12 07:45:01;;;;;;;2.85;1.75;;;;;;;;;;5055595;28;20098;-57
2024/02/12 07:47:28;;;;;;;2.22;1.33;;;;;;;;;;5057123;28;20032;-57
2024/02/12 07:49:54;;;;;;;2.20;1.30;;;;;;;;;;5056879;28;20037;-55
2024/02/12 07:52:20;;;;;;;1.63;0.75;;;;;;;;;;5056135;28;20116;-55
2024/02/12 07:54:46;;;;;;;2.40;1.20;;;;;;;;;;5056673;28;20177;-57
2024/02/12 07:57:12;;;;;;;1.73;0.95;;;;;;;;;;5056161;28;20494;-57
2024/02/12 07:59:38;;;;;;;2.20;1.15;;;;;;;;;;5056026;28;20060;-57
2024/02/12 08:02:06;;;;;;;2.33;1.13;;;;;;;;;;5055935;28;20190;-57
2024/02/12 08:04:32;;;;;;;2.22;1.10;;;;;;;;;;5055844;28;20036;-58
2024/02/12 08:06:58;;;;;;;2.40;1.02;;;;;;;;;;5055864;28;20025;-57
2024/02/12 08:09:24;;;;;;;2.22;1.40;;;;;;;;;;5056411;28;20024;-55
2024/02/12 08:11:50;;;;;;;2.22;1.10;;;;;;;;;;5055845;28;20378;-56
2024/02/12 08:14:16;;;;;;;1.85;1.02;;;;;;;;;;5055300;28;20036;-56
2024/02/12 08:16:46;;;;;;;1.73;0.82;;;;;;;;;;5055676;28;20025;-52
2024/02/12 08:19:12;;;;;;;1.58;0.82;;;;;;;;;;5056191;28;20064;-55
2024/02/12 08:21:38;;;;;;;1.63;0.93;;;;;;;;;;5056413;28;20379;-57
2024/02/12 08:24:04;;;;;;;3.05;1.20;;;;;;;;;;5055604;28;20025;-53
2024/02/12 08:26:30;;;;;;;1.67;0.90;;;;;;;;;;5056093;28;20057;-57
2024/02/12 08:28:58;;;;;;;2.08;0.93;;;;;;;;;;5056342;28;20111;-56
2024/02/12 08:31:24;;;;;;;2.13;0.90;;;;;;;;;;5056023;28;20032;-57
2024/02/12 08:33:50;;;;;;;1.63;0.82;;;;;;;;;;5055989;28;20029;-56
2024/02/12 08:36:17;;;;;;;2.72;1.20;;;;;;;;;;5055848;28;20162;-57
2024/02/12 08:38:43;;;;;;;1.30;0.68;;;;;;;;;;5055334;28;20052;-57
2024/02/12 08:41:09;;;;;;;1.73;0.88;;;;;;;;;;5054877;28;20374;-56
2024/02/12 08:43:35;;;;;;;1.70;0.90;;;;;;;;;;5055881;28;20033;-57
2024/02/12 08:46:01;;;;;;;1.83;0.95;;;;;;;;;;5054820;28;20186;-57
2024/02/12 08:48:27;;;;;;;0.90;0.50;;;;;;;;;;5055504;28;20052;-59
2024/02/12 08:50:53;;;;;;;2.40;1.23;;;;;;;;;;5055273;28;20032;-57
2024/02/12 08:53:19;;;;;;;2.70;1.35;;;;;;;;;;5055046;28;20094;-57
2024/02/12 08:55:45;;;;;;;2.13;1.02;;;;;;;;;;5054864;28;20041;-55
2024/02/12 08:58:12;;;;;;;2.58;1.27;;;;;;;;;;5055022;28;20463;-57
2024/02/12 09:00:38;;;;;;;1.73;1.02;;;;;;;;;;5055400;28;20031;-54
2024/02/12 09:03:05;;;;;;;1.45;0.63;;;;;;;;;;5055253;28;20055;-55
2024/02/12 09:05:31;;;;;;;2.35;1.02;;;;;;;;;;5055020;28;20025;-57
2024/02/12 09:07:57;;;;;;;1.65;0.93;;;;;;;;;;5054857;28;20036;-56
2024/02/12 09:10:23;;;;;;;1.92;1.13;;;;;;;;;;5054734;28;20036;-54
2024/02/12 09:12:49;;;;;;;1.52;0.82;;;;;;;;;;5054644;28;20025;-58
2024/02/12 09:15:16;;;;;;;2.85;1.33;;;;;;;;;;5054613;28;20024;-55
2024/02/12 09:17:42;;;;;;;1.33;0.65;;;;;;;;;;5055181;28;20109;-56
2024/02/12 09:20:11;;;;;;;2.00;1.20;;;;;;;;;;5055018;28;20106;-58
2024/02/12 09:22:38;;;;;;;2.83;1.00;;;;;;;;;;5054662;28;20037;-58
2024/02/12 09:25:04;;;;;;;2.05;1.05;;;;;;;;;;5054437;28;20379;-56
2024/02/12 09:27:32;;;;;;;1.52;0.90;;;;;;;;;;5054950;28;20107;-57
2024/02/12 09:29:59;;;;;;;1.75;0.82;;;;;;;;;;5054870;28;20118;-57
2024/02/12 09:32:25;;;;;;;4.30;0.98;;;;;;;;;;5054986;28;20079;-54
2024/02/12 09:34:51;;;;;;;3.45;1.60;;;;;;;;;;5054160;28;20021;-53
2024/02/12 09:37:18;;;;;;;1.63;0.90;;;;;;;;;;5054644;28;20060;-58
2024/02/12 09:39:44;;;;;;;1.58;0.65;;;;;;;;;;5055041;28;20028;-57
2024/02/12 09:42:12;;;;;;;2.13;1.00;;;;;;;;;;5054540;28;20076;-53
2024/02/12 09:44:40;;;;;;;2.97;1.15;;;;;;;;;;5054464;28;20045;-54
2024/02/12 09:47:08;;;;;;;2.28;1.13;;;;;;;;;;5054530;28;20029;-55
2024/02/12 09:49:34;;;;;;;2.25;1.00;;;;;;;;;;5054227;28;20037;-53
2024/02/12 09:52:00;;;;;;;2.28;1.00;;;;;;;;;;5054505;28;20032;-57
2024/02/12 09:54:27;;;;;;;1.88;0.95;;;;;;;;;;5053950;28;20033;-56
2024/02/12 09:56:53;;;;;;;2.40;1.13;;;;;;;;;;5054118;28;20384;-54
2024/02/12 09:59:19;;;;;;;2.03;1.20;;;;;;;;;;5054141;28;20025;-56
2024/02/12 10:01:45;;;;;;;1.88;1.17;;;;;;;;;;5053764;28;20462;-57
2024/02/12 10:04:11;;;;;;;1.92;1.10;;;;;;;;;;5053768;28;20040;-57
2024/02/12 10:06:37;;;;;;;1.95;1.15;;;;;;;;;;5054278;28;20049;-58
2024/02/12 10:09:07;;;;;;;1.85;0.93;;;;;;;;;;5054272;28;20025;-58
2024/02/12 10:11:33;;;;;;;1.00;0.63;;;;;;;;;;5054424;28;20021;-57
2024/02/12 10:14:01;;;;;;;1.75;0.90;;;;;;;;;;5053313;28;20379;-58
2024/02/12 10:16:27;;;;;;;5.65;1.70;;;;;;;;;;5053453;28;20025;-56
2024/02/12 10:18:56;;;;;;;2.03;1.23;;;;;;;;;;5053577;28;20071;-58
2024/02/12 10:21:23;;;;;;;2.40;1.30;;;;;;;;;;5053414;28;20033;-55
2024/02/12 10:23:49;;;;;;;2.47;1.25;;;;;;;;;;5053958;28;20068;-58
2024/02/12 10:26:21;;;;;;;3.58;1.52;;;;;;;;;;5053941;28;20017;-58
2024/02/12 10:28:53;;;;;;;2.05;1.10;;;;;;;;;;5053898;28;20025;-57
2024/02/12 10:31:19;;;;;;;2.08;1.00;;;;;;;;;;5053930;28;20371;-57
2024/02/12 10:33:45;;;;;;;1.25;0.68;;;;;;;;;;5054044;28;20396;-57
2024/02/12 10:36:14;;;;;;;1.85;1.17;;;;;;;;;;5053414;28;20029;-58
2024/02/12 10:38:41;;;;;;;3.13;1.27;;;;;;;;;;5058081;28;20021;-56
2024/02/12 10:41:13;;;;;;;1.85;1.02;;;;;;;;;;5057765;28;20024;-56
2024/02/12 10:43:40;;;;;;;4.05;1.30;;;;;;;;;;5057490;28;20162;-57
2024/02/12 10:46:06;;;;;;;2.17;0.80;;;;;;;;;;5057457;28;20059;-54
2024/02/12 10:48:33;;;;;;;3.55;1.05;;;;;;;;;;5057982;28;20341;-58
2024/02/12 10:51:00;;;;;;;2.15;1.00;;;;;;;;;;5057332;28;20098;-56
2024/02/12 10:53:31;;;;;;;1.60;0.98;;;;;;;;;;5056902;28;20033;-57
2024/02/12 10:55:57;;;;;;;1.85;0.90;;;;;;;;;;5057021;28;20045;-52
2024/02/12 10:58:24;;;;;;;2.80;1.10;;;;;;;;;;5056722;28;20112;-57
2024/02/12 11:00:59;;;;;;;6.15;1.52;;;;;;;;;;5057108;28;20075;-55
2024/02/12 11:03:38;;;;;;;2.33;1.13;;;;;;;;;;5056955;28;20079;-58
2024/02/12 11:06:10;;;;;;;2.25;1.00;;;;;;;;;;5056696;28;20033;-54
2024/02/12 11:08:39;;;;;;;2.33;1.10;;;;;;;;;;5057924;28;20036;-53
2024/02/12 11:11:14;;;;;;;2.30;1.10;;;;;;;;;;5056960;28;20024;-54
2024/02/12 11:13:44;;;;;;;2.88;1.48;;;;;;;;;;5056883;28;20088;-58
2024/02/12 11:16:17;;;;;;;2.72;1.63;;;;;;;;;;5057773;28;20033;-57
2024/02/12 11:18:43;;;;;;;3.65;1.33;;;;;;;;;;5057166;28;20039;-56
2024/02/12 11:21:16;;;;;;;3.05;1.30;;;;;;;;;;5056706;28;20032;-57
2024/02/12 11:23:44;;;;;;;2.00;1.20;;;;;;;;;;5056651;28;20374;-57
2024/02/12 11:26:10;;;;;;;2.13;1.25;;;;;;;;;;5056649;28;20049;-54
2024/02/12 11:28:38;;;;;;;1.77;0.95;;;;;;;;;;5057324;28;20078;-56
2024/02/12 11:31:04;;;;;;;2.13;1.30;;;;;;;;;;5057115;28;20033;-57
2024/02/12 11:33:31;;;;;;;1.92;0.93;;;;;;;;;;5056553;28;20028;-53
2024/02/12 11:36:07;;;;;;;1.70;1.05;;;;;;;;;;5056474;28;20059;-57
2024/02/12 11:38:35;;;;;;;1.73;0.98;;;;;;;;;;5057305;28;20021;-58
2024/02/12 11:41:01;;;;;;;2.25;0.88;;;;;;;;;;5056694;28;20056;-57
2024/02/12 11:43:29;;;;;;;2.53;0.98;;;;;;;;;;5056835;28;20119;-57
2024/02/12 11:46:02;;;;;;;1.65;0.93;;;;;;;;;;5056971;28;20025;-57
2024/02/12 11:48:28;;;;;;;1.80;1.15;;;;;;;;;;5054873;28;20538;-56
2024/02/12 11:50:57;;;;;;;1.80;0.90;;;;;;;;;;5056448;28;20379;-56
2024/02/12 11:53:25;;;;;;;1.83;1.00;;;;;;;;;;5056071;28;20151;-56
2024/02/12 11:55:51;;;;;;;3.13;1.35;;;;;;;;;;5055981;28;20063;-57
2024/02/12 11:58:17;;;;;;;2.28;1.08;;;;;;;;;;5055724;28;20025;-56
2024/02/12 12:00:44;;;;;;;1.75;1.10;;;;;;;;;;5056544;28;20017;-57
2024/02/12 12:03:11;;;;;;;2.20;0.90;;;;;;;;;;5055879;28;20079;-57
2024/02/12 12:05:38;;;;;;;3.97;1.02;;;;;;;;;;5055964;28;20025;-58
2024/02/12 12:08:06;;;;;;;2.28;1.10;;;;;;;;;;5055889;28;20091;-58
2024/02/12 12:10:35;;;;;;;2.80;1.45;;;;;;;;;;5055902;28;20033;-55
2024/02/12 12:13:01;;;;;;;3.13;0.90;;;;;;;;;;5055604;28;20140;-58
2024/02/12 12:15:28;;;;;;;3.20;1.40;;;;;;;;;;5055723;28;20025;-53
2024/02/12 12:17:54;;;;;;;2.63;1.52;;;;;;;;;;5056168;28;20025;-57
2024/02/12 12:20:25;;;;;;;3.83;1.23;;;;;;;;;;5055223;28;20025;-58
2024/02/12 12:22:51;;;;;;;;;;;;;;;;;;5055578;28;20045;-56
2024/02/12 12:25:18;;;;;;;2.10;1.00;;;;;;;;;;5055786;28;19912;-57
2024/02/12 12:27:44;;;;;;;2.42;0.93;;;;;;;;;;5056022;28;20036;-56
2024/02/12 12:30:18;;;;;;;3.90;1.20;;;;;;;;;;5055357;28;20025;-57
2024/02/12 12:32:47;;;;;;;2.22;1.00;;;;;;;;;;5055921;28;20029;-57
2024/02/12 12:35:13;;;;;;;1.58;0.90;;;;;;;;;;5055410;28;20162;-56
2024/02/12 12:37:39;;;;;;;2.45;1.00;;;;;;;;;;5055797;28;20458;-57
2024/02/12 12:40:11;;;;;;;1.35;0.70;;;;;;;;;;5055624;28;20156;-58
2024/02/12 12:42:37;;;;;;;1.83;1.05;;;;;;;;;;5055918;28;20411;-55
2024/02/12 12:45:04;;;;;;;2.47;0.70;;;;;;;;;;5055346;28;20073;-54
2024/02/12 12:47:31;;;;;;;1.65;0.75;;;;;;;;;;5055336;28;20490;-57
2024/02/12 12:49:57;;;;;;;3.08;0.93;;;;;;;;;;5055578;28;20029;-57
2024/02/12 12:52:23;;;;;;;2.53;1.10;;;;;;;;;;5055510;28;20479;-57
2024/02/12 12:54:49;;;;;;;1.30;0.68;;;;;;;;;;5054748;28;20064;-58
2024/02/12 12:57:16;;;;;;;1.33;0.70;;;;;;;;;;5055915;28;20081;-58
2024/02/12 12:59:43;;;;;;;1.67;1.00;;;;;;;;;;5055541;28;20035;-58
2024/02/12 13:02:09;;;;;;;1.42;0.88;;;;;;;;;;5055268;28;20370;-56
2024/02/12 13:04:36;;;;;;;3.50;1.05;;;;;;;;;;5055389;28;20029;-57
2024/02/12 13:07:03;;;;;;;2.17;1.27;;;;;;;;;;5054788;28;20129;-57
2024/02/12 13:09:30;;;;;;;1.95;1.20;;;;;;;;;;5054770;28;20029;-58
2024/02/12 13:11:56;;;;;;;1.13;0.57;;;;;;;;;;5055191;28;20025;-57
2024/02/12 13:14:22;;;;;;;1.42;0.95;;;;;;;;;;5054636;28;20474;-56
2024/02/12 13:16:48;;;;;;;1.90;0.80;;;;;;;;;;5054532;28;20021;-58
2024/02/12 13:19:14;;;;;;;1.80;1.00;;;;;;;;;;5055004;28;20031;-56
2024/02/12 13:21:41;;;;;;;1.33;0.52;;;;;;;;;;5054791;28;20025;-57
2024/02/12 13:24:10;;;;;;;2.08;0.68;;;;;;;;;;5054360;28;20074;-56
2024/02/12 13:26:40;;;;;;;2.70;0.82;;;;;;;;;;5054260;28;20107;-57
2024/02/12 13:29:06;;;;;;;1.50;0.50;;;;;;;;;;5054965;28;20090;-57
2024/02/12 13:31:34;;;;;;;2.10;0.80;;;;;;;;;;5054293;28;20060;-55
2024/02/12 13:34:01;;;;;;;1.85;0.80;;;;;;;;;;5054247;28;20057;-58
2024/02/12 13:36:28;;;;;;;1.00;0.60;;;;;;;;;;5054952;28;20367;-56
2024/02/12 13:38:55;;;;;;;1.13;0.52;;;;;;;;;;5054764;28;20021;-56
2024/02/12 13:41:21;;;;;;;2.00;0.98;;;;;;;;;;5054137;28;20025;-55
2024/02/12 13:43:48;;;;;;;3.00;0.80;;;;;;;;;;5053715;28;20055;-56
2024/02/12 13:46:14;;;;;;;1.17;0.50;;;;;;;;;;5054708;28;20116;-54
2024/02/12 13:48:43;;;;;;;0.80;0.40;;;;;;;;;;5054766;28;20067;-56
2024/02/12 13:51:08;;;;;;;1.25;0.35;;;;;;;;;;5053957;28;20021;-57
2024/02/12 13:53:35;;;;;;;0.93;0.40;;;;;;;;;;5054290;28;20147;-56
2024/02/12 13:56:01;;;;;;;3.22;0.68;;;;;;;;;;5053864;28;20051;-57
2024/02/12 13:58:28;;;;;;;0.95;0.40;;;;;;;;;;5053539;28;20478;-58
2024/02/12 14:00:54;;;;;;;1.25;0.65;;;;;;;;;;5053855;28;20063;-52
2024/02/12 14:03:20;;;;;;;1.17;0.52;;;;;;;;;;5053753;28;20025;-55
2024/02/12 14:05:46;;;;;;;1.58;0.38;;;;;;;;;;5053744;28;20094;-58
2024/02/12 14:08:12;;;;;;;1.42;0.60;;;;;;;;;;5054352;28;20029;-57
2024/02/12 14:10:38;;;;;;;1.65;0.45;;;;;;;;;;5053673;28;20025;-56
2024/02/12 14:13:04;;;;;;;2.45;0.70;;;;;;;;;;5053601;28;20040;-58
2024/02/12 14:15:30;;;;;;;1.80;0.45;;;;;;;;;;5054172;28;20025;-56
2024/02/12 14:17:56;;;;;;;2.53;0.65;;;;;;;;;;5053978;28;20112;-58
2024/02/12 14:20:25;;;;;;;1.05;0.52;;;;;;;;;;5053566;28;20029;-57
2024/02/12 14:22:51;;;;;;;0.93;0.40;;;;;;;;;;5053554;28;20033;-57
2024/02/12 14:25:18;;;;;;;1.23;0.50;;;;;;;;;;5053570;28;20036;-56
2024/02/12 14:27:48;;;;;;;1.33;0.52;;;;;;;;;;5054174;28;20018;-55
2024/02/12 14:30:17;;;;;;;3.72;0.57;;;;;;;;;;5054107;28;20025;-57
2024/02/12 14:32:44;;;;;;;0.65;0.30;;;;;;;;;;5053498;28;20033;-58
2024/02/12 14:35:15;;;;;;;1.17;0.68;;;;;;;;;;5053719;28;20451;-58
2024/02/12 14:37:42;;;;;;;0.80;0.45;;;;;;;;;;5054078;28;20108;-58
2024/02/12 14:40:11;;;;;;;1.67;0.50;;;;;;;;;;5053081;28;20021;-57
2024/02/12 14:42:37;;;;;;;1.00;0.55;;;;;;;;;;5053336;28;20026;-56
2024/02/12 14:45:05;;;;;;;1.33;0.57;;;;;;;;;;5053400;28;20035;-56
2024/02/12 14:47:31;;;;;;;0.93;0.30;;;;;;;;;;5053360;28;20029;-56
2024/02/12 14:49:58;;;;;;;1.63;0.57;;;;;;;;;;5053779;28;20032;-58
2024/02/12 14:52:25;;;;;;;1.45;0.63;;;;;;;;;;5053226;28;20381;-55
2024/02/12 14:54:52;;;;;;;1.30;0.45;;;;;;;;;;5053722;28;20359;-56
2024/02/12 14:57:18;;;;;;;3.72;0.60;;;;;;;;;;5054137;28;20363;-57